sensor_id;sensor_type;location;lat;lon;timestamp;temperature;humidity
26803;DHT22;14378;51.796;5.808;2023-08-17T00:01:52;20.20;99.90
26803;DHT22;14378;51.796;5.808;2023-08-17T00:03:53;20.20;99.90
26803;DHT22;14378;51.796;5.808;2023-08-17T00:05:59;20.10;99.90
26803;DHT22;14378;51.796;5.808;2023-08-17T00:08:01;20.10;99.90
26803;DHT22;14378;51.796;5.808;2023-08-17T00:10:03;20.10;99.90
26803;DHT22;14378;51.796;5.808;2023-08-17T00:12:04;20.10;99.90
26803;DHT22;14378;51.796;5.808;2023-08-17T00:14:05;20.10;99.90
26803;DHT22;14378;51.796;5.808;2023-08-17T00:16:06;20.00;99.90
26803;DHT22;14378;51.796;5.808;2023-08-17T00:18:07;20.00;99.90
26803;DHT22;14378;51.796;5.808;2023-08-17T00:20:08;20.10;99.90
26803;DHT22;14378;51.796;5.808;2023-08-17T00:22:10;20.00;99.90
26803;DHT22;14378;51.796;5.808;2023-08-17T00:24:11;20.00;99.90
26803;DHT22;14378;51.796;5.808;2023-08-17T00:26:11;20.00;99.90
26803;DHT22;14378;51.796;5.808;2023-08-17T00:28:13;20.00;99.90
26803;DHT22;14378;51.796;5.808;2023-08-17T00:30:13;20.00;99.90
26803;DHT22;14378;51.796;5.808;2023-08-17T00:32:14;20.00;99.90
26803;DHT22;14378;51.796;5.808;2023-08-17T00:34:15;20.00;99.90
26803;DHT22;14378;51.796;5.808;2023-08-17T00:36:16;20.00;99.90
26803;DHT22;14378;51.796;5.808;2023-08-17T00:38:17;20.00;99.90
26803;DHT22;14378;51.796;5.808;2023-08-17T00:40:19;20.00;99.90
26803;DHT22;14378;51.796;5.808;2023-08-17T00:42:19;20.00;99.90
26803;DHT22;14378;51.796;5.808;2023-08-17T00:44:20;20.00;99.90
26803;DHT22;14378;51.796;5.808;2023-08-17T00:46:22;20.00;99.90
26803;DHT22;14378;51.796;5.808;2023-08-17T00:48:25;19.90;99.90
26803;DHT22;14378;51.796;5.808;2023-08-17T00:50:28;19.90;99.90
26803;DHT22;14378;51.796;5.808;2023-08-17T00:52:31;19.90;99.90
26803;DHT22;14378;51.796;5.808;2023-08-17T00:54:33;19.90;99.90
26803;DHT22;14378;51.796;5.808;2023-08-17T00:56:34;19.90;99.90
26803;DHT22;14378;51.796;5.808;2023-08-17T00:58:35;19.90;99.90
26803;DHT22;14378;51.796;5.808;2023-08-17T01:00:37;19.90;99.90
26803;DHT22;14378;51.796;5.808;2023-08-17T01:02:38;19.80;99.90
26803;DHT22;14378;51.796;5.808;2023-08-17T01:04:39;19.80;99.90
26803;DHT22;14378;51.796;5.808;2023-08-17T01:06:40;19.80;99.90
26803;DHT22;14378;51.796;5.808;2023-08-17T01:08:42;19.80;99.90
26803;DHT22;14378;51.796;5.808;2023-08-17T01:13:13;19.80;99.90
26803;DHT22;14378;51.796;5.808;2023-08-17T01:15:21;19.70;99.90
26803;DHT22;14378;51.796;5.808;2023-08-17T01:17:29;19.70;99.90
26803;DHT22;14378;51.796;5.808;2023-08-17T01:19:33;19.70;99.90
26803;DHT22;14378;51.796;5.808;2023-08-17T01:21:41;19.70;99.90
26803;DHT22;14378;51.796;5.808;2023-08-17T01:23:46;19.70;99.90
26803;DHT22;14378;51.796;5.808;2023-08-17T01:25:47;19.70;99.90
26803;DHT22;14378;51.796;5.808;2023-08-17T01:27:48;19.60;99.90
26803;DHT22;14378;51.796;5.808;2023-08-17T01:29:50;19.60;99.90
26803;DHT22;14378;51.796;5.808;2023-08-17T01:32:12;19.60;99.90
26803;DHT22;14378;51.796;5.808;2023-08-17T01:34:18;19.60;99.90
26803;DHT22;14378;51.796;5.808;2023-08-17T01:36:30;19.60;99.90
26803;DHT22;14378;51.796;5.808;2023-08-17T01:38:32;19.60;99.90
26803;DHT22;14378;51.796;5.808;2023-08-17T01:40:34;19.50;99.90
26803;DHT22;14378;51.796;5.808;2023-08-17T01:42:36;19.50;99.90
26803;DHT22;14378;51.796;5.808;2023-08-17T01:44:38;19.40;99.90
26803;DHT22;14378;51.796;5.808;2023-08-17T01:46:39;19.40;99.90
26803;DHT22;14378;51.796;5.808;2023-08-17T01:48:43;19.40;99.90
26803;DHT22;14378;51.796;5.808;2023-08-17T01:50:44;19.30;99.90
26803;DHT22;14378;51.796;5.808;2023-08-17T01:52:45;19.30;99.90
26803;DHT22;14378;51.796;5.808;2023-08-17T01:54:46;19.30;99.90
26803;DHT22;14378;51.796;5.808;2023-08-17T01:56:47;19.30;99.90
26803;DHT22;14378;51.796;5.808;2023-08-17T01:58:47;19.20;99.90
26803;DHT22;14378;51.796;5.808;2023-08-17T02:00:48;19.20;99.90
26803;DHT22;14378;51.796;5.808;2023-08-17T02:02:49;19.20;99.90
26803;DHT22;14378;51.796;5.808;2023-08-17T02:04:50;19.20;99.90
26803;DHT22;14378;51.796;5.808;2023-08-17T02:06:51;19.10;99.90
26803;DHT22;14378;51.796;5.808;2023-08-17T02:08:53;19.10;99.90
26803;DHT22;14378;51.796;5.808;2023-08-17T02:10:56;19.10;99.90
26803;DHT22;14378;51.796;5.808;2023-08-17T02:12:57;19.10;99.90
26803;DHT22;14378;51.796;5.808;2023-08-17T02:14:58;19.10;99.90
26803;DHT22;14378;51.796;5.808;2023-08-17T02:16:59;19.10;99.90
26803;DHT22;14378;51.796;5.808;2023-08-17T02:19:01;19.20;99.90
26803;DHT22;14378;51.796;5.808;2023-08-17T02:21:02;19.10;99.90
26803;DHT22;14378;51.796;5.808;2023-08-17T02:23:03;19.10;99.90
26803;DHT22;14378;51.796;5.808;2023-08-17T02:25:04;19.10;99.90
26803;DHT22;14378;51.796;5.808;2023-08-17T02:27:06;19.10;99.90
26803;DHT22;14378;51.796;5.808;2023-08-17T02:29:08;19.10;99.90
26803;DHT22;14378;51.796;5.808;2023-08-17T02:31:09;19.10;99.90
26803;DHT22;14378;51.796;5.808;2023-08-17T02:33:10;19.10;99.90
26803;DHT22;14378;51.796;5.808;2023-08-17T02:35:11;19.10;99.90
26803;DHT22;14378;51.796;5.808;2023-08-17T02:37:11;19.10;99.90
26803;DHT22;14378;51.796;5.808;2023-08-17T02:39:12;19.10;99.90
26803;DHT22;14378;51.796;5.808;2023-08-17T02:41:13;19.10;99.90
26803;DHT22;14378;51.796;5.808;2023-08-17T02:43:14;19.10;99.90
26803;DHT22;14378;51.796;5.808;2023-08-17T02:45:15;19.10;99.90
26803;DHT22;14378;51.796;5.808;2023-08-17T02:47:16;19.10;99.90
26803;DHT22;14378;51.796;5.808;2023-08-17T02:49:16;19.10;99.90
26803;DHT22;14378;51.796;5.808;2023-08-17T02:51:17;19.10;99.90
26803;DHT22;14378;51.796;5.808;2023-08-17T02:53:18;19.10;99.90
26803;DHT22;14378;51.796;5.808;2023-08-17T02:55:19;19.00;99.90
26803;DHT22;14378;51.796;5.808;2023-08-17T02:57:21;19.10;99.90
26803;DHT22;14378;51.796;5.808;2023-08-17T02:59:21;19.10;99.90
26803;DHT22;14378;51.796;5.808;2023-08-17T03:01:22;19.10;99.90
26803;DHT22;14378;51.796;5.808;2023-08-17T03:03:23;19.00;99.90
26803;DHT22;14378;51.796;5.808;2023-08-17T03:05:24;19.00;99.90
26803;DHT22;14378;51.796;5.808;2023-08-17T03:07:25;19.00;99.90
26803;DHT22;14378;51.796;5.808;2023-08-17T03:09:26;18.90;99.90
26803;DHT22;14378;51.796;5.808;2023-08-17T03:11:26;18.90;99.90
26803;DHT22;14378;51.796;5.808;2023-08-17T03:13:27;18.90;99.90
26803;DHT22;14378;51.796;5.808;2023-08-17T03:15:28;18.90;99.90
26803;DHT22;14378;51.796;5.808;2023-08-17T03:17:29;18.90;99.90
26803;DHT22;14378;51.796;5.808;2023-08-17T03:19:30;18.80;99.90
26803;DHT22;14378;51.796;5.808;2023-08-17T03:21:31;18.80;99.90
26803;DHT22;14378;51.796;5.808;2023-08-17T03:23:32;18.80;99.90
26803;DHT22;14378;51.796;5.808;2023-08-17T03:25:34;18.80;99.90
26803;DHT22;14378;51.796;5.808;2023-08-17T03:27:35;18.80;99.90
26803;DHT22;14378;51.796;5.808;2023-08-17T03:29:37;18.80;99.90
26803;DHT22;14378;51.796;5.808;2023-08-17T03:31:38;18.70;99.90
26803;DHT22;14378;51.796;5.808;2023-08-17T03:33:41;18.70;99.90
26803;DHT22;14378;51.796;5.808;2023-08-17T03:35:43;18.70;99.90
26803;DHT22;14378;51.796;5.808;2023-08-17T03:37:44;18.70;99.90
26803;DHT22;14378;51.796;5.808;2023-08-17T03:39:46;18.70;99.90
26803;DHT22;14378;51.796;5.808;2023-08-17T03:41:47;18.70;99.90
26803;DHT22;14378;51.796;5.808;2023-08-17T03:43:48;18.60;99.90
26803;DHT22;14378;51.796;5.808;2023-08-17T03:45:49;18.60;99.90
26803;DHT22;14378;51.796;5.808;2023-08-17T03:47:49;18.60;99.90
26803;DHT22;14378;51.796;5.808;2023-08-17T03:49:51;18.60;99.90
26803;DHT22;14378;51.796;5.808;2023-08-17T03:51:52;18.60;99.90
26803;DHT22;14378;51.796;5.808;2023-08-17T03:53:53;18.50;99.90
26803;DHT22;14378;51.796;5.808;2023-08-17T03:55:54;18.60;99.90
26803;DHT22;14378;51.796;5.808;2023-08-17T03:57:55;18.50;99.90
26803;DHT22;14378;51.796;5.808;2023-08-17T03:59:56;18.60;99.90
26803;DHT22;14378;51.796;5.808;2023-08-17T04:01:57;18.50;99.90
26803;DHT22;14378;51.796;5.808;2023-08-17T04:03:58;18.50;99.90
26803;DHT22;14378;51.796;5.808;2023-08-17T04:06:04;18.50;99.90
26803;DHT22;14378;51.796;5.808;2023-08-17T04:08:06;18.50;99.90
26803;DHT22;14378;51.796;5.808;2023-08-17T04:10:07;18.50;99.90
26803;DHT22;14378;51.796;5.808;2023-08-17T04:12:08;18.50;99.90
26803;DHT22;14378;51.796;5.808;2023-08-17T04:14:11;18.40;99.90
26803;DHT22;14378;51.796;5.808;2023-08-17T04:16:12;18.40;99.90
26803;DHT22;14378;51.796;5.808;2023-08-17T04:18:14;18.40;99.90
26803;DHT22;14378;51.796;5.808;2023-08-17T04:20:15;18.40;99.90
26803;DHT22;14378;51.796;5.808;2023-08-17T04:22:16;18.30;99.90
26803;DHT22;14378;51.796;5.808;2023-08-17T04:24:17;18.40;99.90
26803;DHT22;14378;51.796;5.808;2023-08-17T04:26:17;18.30;99.90
26803;DHT22;14378;51.796;5.808;2023-08-17T04:28:18;18.30;99.90
26803;DHT22;14378;51.796;5.808;2023-08-17T04:30:20;18.30;99.90
26803;DHT22;14378;51.796;5.808;2023-08-17T04:32:28;18.30;99.90
26803;DHT22;14378;51.796;5.808;2023-08-17T04:34:29;18.20;99.90
26803;DHT22;14378;51.796;5.808;2023-08-17T04:36:29;18.20;99.90
26803;DHT22;14378;51.796;5.808;2023-08-17T04:38:31;18.30;99.90
26803;DHT22;14378;51.796;5.808;2023-08-17T04:40:32;18.30;99.90
26803;DHT22;14378;51.796;5.808;2023-08-17T04:42:34;18.30;99.90
26803;DHT22;14378;51.796;5.808;2023-08-17T04:44:35;18.20;99.90
26803;DHT22;14378;51.796;5.808;2023-08-17T04:46:36;18.20;99.90
26803;DHT22;14378;51.796;5.808;2023-08-17T04:48:37;18.20;99.90
26803;DHT22;14378;51.796;5.808;2023-08-17T04:50:38;18.20;99.90
26803;DHT22;14378;51.796;5.808;2023-08-17T04:52:39;18.20;99.90
26803;DHT22;14378;51.796;5.808;2023-08-17T04:54:40;18.20;99.90
26803;DHT22;14378;51.796;5.808;2023-08-17T04:56:41;18.20;99.90
26803;DHT22;14378;51.796;5.808;2023-08-17T04:58:43;18.20;99.90
26803;DHT22;14378;51.796;5.808;2023-08-17T05:00:46;18.20;99.90
26803;DHT22;14378;51.796;5.808;2023-08-17T05:02:48;18.10;99.90
26803;DHT22;14378;51.796;5.808;2023-08-17T05:04:49;18.10;99.90
26803;DHT22;14378;51.796;5.808;2023-08-17T05:06:49;18.10;99.90
26803;DHT22;14378;51.796;5.808;2023-08-17T05:08:50;18.10;99.90
26803;DHT22;14378;51.796;5.808;2023-08-17T05:10:54;18.10;99.90
26803;DHT22;14378;51.796;5.808;2023-08-17T05:12:55;18.20;99.90
26803;DHT22;14378;51.796;5.808;2023-08-17T05:14:57;18.20;99.90
26803;DHT22;14378;51.796;5.808;2023-08-17T05:16:58;18.10;99.90
26803;DHT22;14378;51.796;5.808;2023-08-17T05:19:00;18.10;99.90
26803;DHT22;14378;51.796;5.808;2023-08-17T05:21:01;18.10;99.90
26803;DHT22;14378;51.796;5.808;2023-08-17T05:23:05;18.20;99.90
26803;DHT22;14378;51.796;5.808;2023-08-17T05:25:06;18.20;99.90
26803;DHT22;14378;51.796;5.808;2023-08-17T05:27:09;18.20;99.90
26803;DHT22;14378;51.796;5.808;2023-08-17T05:29:11;18.20;99.90
26803;DHT22;14378;51.796;5.808;2023-08-17T05:31:12;18.20;99.90
26803;DHT22;14378;51.796;5.808;2023-08-17T05:33:16;18.20;99.90
26803;DHT22;14378;51.796;5.808;2023-08-17T05:35:18;18.20;99.90
26803;DHT22;14378;51.796;5.808;2023-08-17T05:37:19;18.20;99.90
26803;DHT22;14378;51.796;5.808;2023-08-17T05:39:20;18.20;99.90
26803;DHT22;14378;51.796;5.808;2023-08-17T05:41:21;18.20;99.90
26803;DHT22;14378;51.796;5.808;2023-08-17T05:43:22;18.20;99.90
26803;DHT22;14378;51.796;5.808;2023-08-17T05:45:23;18.30;99.90
26803;DHT22;14378;51.796;5.808;2023-08-17T05:47:24;18.30;99.90
26803;DHT22;14378;51.796;5.808;2023-08-17T05:49:26;18.30;99.90
26803;DHT22;14378;51.796;5.808;2023-08-17T05:51:27;18.30;99.90
26803;DHT22;14378;51.796;5.808;2023-08-17T05:53:28;18.30;99.90
26803;DHT22;14378;51.796;5.808;2023-08-17T05:55:29;18.30;99.90
26803;DHT22;14378;51.796;5.808;2023-08-17T05:57:29;18.30;99.90
26803;DHT22;14378;51.796;5.808;2023-08-17T05:59:30;18.30;99.90
26803;DHT22;14378;51.796;5.808;2023-08-17T06:01:31;18.30;99.90
26803;DHT22;14378;51.796;5.808;2023-08-17T06:03:32;18.30;99.90
26803;DHT22;14378;51.796;5.808;2023-08-17T06:05:33;18.30;99.90
26803;DHT22;14378;51.796;5.808;2023-08-17T06:07:34;18.30;99.90
26803;DHT22;14378;51.796;5.808;2023-08-17T06:09:34;18.30;99.90
26803;DHT22;14378;51.796;5.808;2023-08-17T06:11:35;18.30;99.90
26803;DHT22;14378;51.796;5.808;2023-08-17T06:13:36;18.30;99.90
26803;DHT22;14378;51.796;5.808;2023-08-17T06:15:37;18.30;99.90
26803;DHT22;14378;51.796;5.808;2023-08-17T06:17:38;18.30;99.90
26803;DHT22;14378;51.796;5.808;2023-08-17T06:19:39;18.30;99.90
26803;DHT22;14378;51.796;5.808;2023-08-17T06:21:40;18.40;99.90
26803;DHT22;14378;51.796;5.808;2023-08-17T06:23:41;18.40;99.90
26803;DHT22;14378;51.796;5.808;2023-08-17T06:25:41;18.40;99.90
26803;DHT22;14378;51.796;5.808;2023-08-17T06:27:42;18.40;99.90
26803;DHT22;14378;51.796;5.808;2023-08-17T06:29:44;18.40;99.90
26803;DHT22;14378;51.796;5.808;2023-08-17T06:31:45;18.40;99.90
26803;DHT22;14378;51.796;5.808;2023-08-17T06:33:47;18.50;99.90
26803;DHT22;14378;51.796;5.808;2023-08-17T06:35:49;18.50;99.90
26803;DHT22;14378;51.796;5.808;2023-08-17T06:37:50;18.60;99.90
26803;DHT22;14378;51.796;5.808;2023-08-17T06:39:52;18.60;99.90
26803;DHT22;14378;51.796;5.808;2023-08-17T06:41:53;18.60;99.90
26803;DHT22;14378;51.796;5.808;2023-08-17T06:43:54;18.60;99.90
26803;DHT22;14378;51.796;5.808;2023-08-17T06:45:56;18.70;99.90
26803;DHT22;14378;51.796;5.808;2023-08-17T06:47:57;18.80;99.90
26803;DHT22;14378;51.796;5.808;2023-08-17T06:49:58;18.70;99.90
26803;DHT22;14378;51.796;5.808;2023-08-17T06:51:59;18.80;99.90
26803;DHT22;14378;51.796;5.808;2023-08-17T06:54:00;18.80;99.90
26803;DHT22;14378;51.796;5.808;2023-08-17T06:56:01;18.80;99.90
26803;DHT22;14378;51.796;5.808;2023-08-17T06:58:02;18.80;99.90
26803;DHT22;14378;51.796;5.808;2023-08-17T07:00:03;18.90;99.90
26803;DHT22;14378;51.796;5.808;2023-08-17T07:02:06;19.00;99.90
26803;DHT22;14378;51.796;5.808;2023-08-17T07:04:06;19.10;99.90
26803;DHT22;14378;51.796;5.808;2023-08-17T07:06:09;19.10;99.90
26803;DHT22;14378;51.796;5.808;2023-08-17T07:08:10;19.20;99.90
26803;DHT22;14378;51.796;5.808;2023-08-17T07:10:11;19.20;99.90
26803;DHT22;14378;51.796;5.808;2023-08-17T07:12:12;19.30;99.90
26803;DHT22;14378;51.796;5.808;2023-08-17T07:14:12;19.30;99.90
26803;DHT22;14378;51.796;5.808;2023-08-17T07:16:13;19.30;99.90
26803;DHT22;14378;51.796;5.808;2023-08-17T07:18:14;19.40;99.90
26803;DHT22;14378;51.796;5.808;2023-08-17T07:20:15;19.40;99.90
26803;DHT22;14378;51.796;5.808;2023-08-17T07:22:16;19.40;99.90
26803;DHT22;14378;51.796;5.808;2023-08-17T07:24:17;19.40;99.90
26803;DHT22;14378;51.796;5.808;2023-08-17T07:26:18;19.50;99.90
26803;DHT22;14378;51.796;5.808;2023-08-17T07:28:21;19.60;99.90
26803;DHT22;14378;51.796;5.808;2023-08-17T07:30:22;19.60;99.90
26803;DHT22;14378;51.796;5.808;2023-08-17T07:32:23;19.70;99.90
26803;DHT22;14378;51.796;5.808;2023-08-17T07:34:25;19.70;99.90
26803;DHT22;14378;51.796;5.808;2023-08-17T07:36:27;19.70;99.90
26803;DHT22;14378;51.796;5.808;2023-08-17T07:38:28;19.80;99.90
26803;DHT22;14378;51.796;5.808;2023-08-17T07:40:29;19.80;99.90
26803;DHT22;14378;51.796;5.808;2023-08-17T07:42:29;19.80;99.90
26803;DHT22;14378;51.796;5.808;2023-08-17T07:44:30;19.80;99.90
26803;DHT22;14378;51.796;5.808;2023-08-17T07:46:35;19.90;99.90
26803;DHT22;14378;51.796;5.808;2023-08-17T07:48:36;19.90;99.90
26803;DHT22;14378;51.796;5.808;2023-08-17T07:50:36;20.00;99.90
26803;DHT22;14378;51.796;5.808;2023-08-17T07:52:37;20.00;99.90
26803;DHT22;14378;51.796;5.808;2023-08-17T07:54:38;20.10;99.90
26803;DHT22;14378;51.796;5.808;2023-08-17T07:56:39;20.10;99.90
26803;DHT22;14378;51.796;5.808;2023-08-17T07:58:40;20.10;99.90
26803;DHT22;14378;51.796;5.808;2023-08-17T08:00:40;20.10;99.90
26803;DHT22;14378;51.796;5.808;2023-08-17T08:02:41;20.20;99.90
26803;DHT22;14378;51.796;5.808;2023-08-17T08:04:42;20.10;99.90
26803;DHT22;14378;51.796;5.808;2023-08-17T08:06:42;20.10;99.90
26803;DHT22;14378;51.796;5.808;2023-08-17T08:08:43;20.10;99.90
26803;DHT22;14378;51.796;5.808;2023-08-17T08:10:44;20.20;99.90
26803;DHT22;14378;51.796;5.808;2023-08-17T08:12:45;20.20;99.90
26803;DHT22;14378;51.796;5.808;2023-08-17T08:14:46;20.20;99.90
26803;DHT22;14378;51.796;5.808;2023-08-17T08:16:47;20.10;99.90
26803;DHT22;14378;51.796;5.808;2023-08-17T08:18:48;20.10;99.90
26803;DHT22;14378;51.796;5.808;2023-08-17T08:20:49;20.10;99.90
26803;DHT22;14378;51.796;5.808;2023-08-17T08:22:50;20.10;99.90
26803;DHT22;14378;51.796;5.808;2023-08-17T08:24:51;20.20;99.90
26803;DHT22;14378;51.796;5.808;2023-08-17T08:26:52;20.20;99.90
26803;DHT22;14378;51.796;5.808;2023-08-17T08:28:54;20.20;99.90
26803;DHT22;14378;51.796;5.808;2023-08-17T08:30:54;20.20;99.90
26803;DHT22;14378;51.796;5.808;2023-08-17T08:32:55;20.30;99.90
26803;DHT22;14378;51.796;5.808;2023-08-17T08:34:58;20.30;99.90
26803;DHT22;14378;51.796;5.808;2023-08-17T08:36:59;20.30;99.90
26803;DHT22;14378;51.796;5.808;2023-08-17T08:39:00;20.20;99.90
26803;DHT22;14378;51.796;5.808;2023-08-17T08:41:02;20.30;99.90
26803;DHT22;14378;51.796;5.808;2023-08-17T08:43:03;20.30;99.90
26803;DHT22;14378;51.796;5.808;2023-08-17T08:45:04;20.30;99.90
26803;DHT22;14378;51.796;5.808;2023-08-17T08:47:05;20.30;99.90
26803;DHT22;14378;51.796;5.808;2023-08-17T08:49:10;20.40;99.90
26803;DHT22;14378;51.796;5.808;2023-08-17T08:51:13;20.40;99.90
26803;DHT22;14378;51.796;5.808;2023-08-17T08:53:18;20.50;99.90
26803;DHT22;14378;51.796;5.808;2023-08-17T08:55:23;20.40;99.90
26803;DHT22;14378;51.796;5.808;2023-08-17T08:57:24;20.40;99.90
26803;DHT22;14378;51.796;5.808;2023-08-17T08:59:27;20.40;99.90
26803;DHT22;14378;51.796;5.808;2023-08-17T09:01:30;20.40;99.90
26803;DHT22;14378;51.796;5.808;2023-08-17T09:03:33;20.40;99.90
26803;DHT22;14378;51.796;5.808;2023-08-17T09:05:34;20.40;99.90
26803;DHT22;14378;51.796;5.808;2023-08-17T09:07:35;20.50;99.90
26803;DHT22;14378;51.796;5.808;2023-08-17T09:09:38;20.50;99.90
26803;DHT22;14378;51.796;5.808;2023-08-17T09:11:38;20.50;99.90
26803;DHT22;14378;51.796;5.808;2023-08-17T09:13:39;20.40;99.90
26803;DHT22;14378;51.796;5.808;2023-08-17T09:15:40;20.40;99.90
26803;DHT22;14378;51.796;5.808;2023-08-17T09:17:41;20.40;99.90
26803;DHT22;14378;51.796;5.808;2023-08-17T09:19:47;20.40;99.90
26803;DHT22;14378;51.796;5.808;2023-08-17T09:21:48;20.40;99.90
26803;DHT22;14378;51.796;5.808;2023-08-17T09:23:55;20.50;99.90
26803;DHT22;14378;51.796;5.808;2023-08-17T09:25:56;20.50;99.90
26803;DHT22;14378;51.796;5.808;2023-08-17T09:27:58;20.50;99.90
26803;DHT22;14378;51.796;5.808;2023-08-17T09:30:08;20.40;99.90
26803;DHT22;14378;51.796;5.808;2023-08-17T09:32:09;20.40;99.90
26803;DHT22;14378;51.796;5.808;2023-08-17T09:34:11;20.40;99.90
26803;DHT22;14378;51.796;5.808;2023-08-17T09:36:15;20.50;99.90
26803;DHT22;14378;51.796;5.808;2023-08-17T09:38:16;20.50;99.90
26803;DHT22;14378;51.796;5.808;2023-08-17T09:40:17;20.50;99.90
26803;DHT22;14378;51.796;5.808;2023-08-17T09:42:18;20.60;99.90
26803;DHT22;14378;51.796;5.808;2023-08-17T09:44:19;20.60;99.90
26803;DHT22;14378;51.796;5.808;2023-08-17T09:46:20;20.60;99.90
26803;DHT22;14378;51.796;5.808;2023-08-17T09:48:22;20.60;99.90
26803;DHT22;14378;51.796;5.808;2023-08-17T09:50:25;20.60;99.90
26803;DHT22;14378;51.796;5.808;2023-08-17T09:52:26;20.60;99.90
26803;DHT22;14378;51.796;5.808;2023-08-17T09:54:27;20.60;99.90
26803;DHT22;14378;51.796;5.808;2023-08-17T09:56:28;20.70;99.90
26803;DHT22;14378;51.796;5.808;2023-08-17T09:58:29;20.70;99.90
26803;DHT22;14378;51.796;5.808;2023-08-17T10:00:30;20.70;99.90
26803;DHT22;14378;51.796;5.808;2023-08-17T10:02:32;20.70;99.90
26803;DHT22;14378;51.796;5.808;2023-08-17T10:04:34;20.70;99.90
26803;DHT22;14378;51.796;5.808;2023-08-17T10:06:38;20.80;99.90
26803;DHT22;14378;51.796;5.808;2023-08-17T10:08:43;20.80;99.90
26803;DHT22;14378;51.796;5.808;2023-08-17T10:10:46;20.90;99.90
26803;DHT22;14378;51.796;5.808;2023-08-17T10:12:51;21.00;99.90
26803;DHT22;14378;51.796;5.808;2023-08-17T10:15:03;21.00;99.90
26803;DHT22;14378;51.796;5.808;2023-08-17T10:17:09;21.00;99.90
26803;DHT22;14378;51.796;5.808;2023-08-17T10:19:24;21.10;99.90
26803;DHT22;14378;51.796;5.808;2023-08-17T10:21:29;21.20;99.90
26803;DHT22;14378;51.796;5.808;2023-08-17T10:23:31;21.20;99.90
26803;DHT22;14378;51.796;5.808;2023-08-17T10:25:31;21.30;99.90
26803;DHT22;14378;51.796;5.808;2023-08-17T10:27:34;21.30;99.90
26803;DHT22;14378;51.796;5.808;2023-08-17T10:29:36;21.30;99.90
26803;DHT22;14378;51.796;5.808;2023-08-17T10:31:39;21.40;99.90
26803;DHT22;14378;51.796;5.808;2023-08-17T10:33:40;21.30;99.90
26803;DHT22;14378;51.796;5.808;2023-08-17T10:35:45;21.40;99.90
26803;DHT22;14378;51.796;5.808;2023-08-17T10:37:47;21.40;99.90
26803;DHT22;14378;51.796;5.808;2023-08-17T10:39:49;21.40;99.90
26803;DHT22;14378;51.796;5.808;2023-08-17T10:41:51;21.50;99.90
26803;DHT22;14378;51.796;5.808;2023-08-17T10:43:59;21.50;99.90
26803;DHT22;14378;51.796;5.808;2023-08-17T10:46:15;21.50;99.90
26803;DHT22;14378;51.796;5.808;2023-08-17T10:48:26;21.50;99.90
26803;DHT22;14378;51.796;5.808;2023-08-17T10:50:28;21.50;99.90
26803;DHT22;14378;51.796;5.808;2023-08-17T10:52:33;21.40;99.90
26803;DHT22;14378;51.796;5.808;2023-08-17T10:54:38;21.40;99.90
26803;DHT22;14378;51.796;5.808;2023-08-17T10:56:40;21.40;99.90
26803;DHT22;14378;51.796;5.808;2023-08-17T10:58:42;21.50;99.90
26803;DHT22;14378;51.796;5.808;2023-08-17T11:00:44;21.50;99.90
26803;DHT22;14378;51.796;5.808;2023-08-17T11:03:06;21.50;99.90
26803;DHT22;14378;51.796;5.808;2023-08-17T11:05:07;21.50;99.90
26803;DHT22;14378;51.796;5.808;2023-08-17T11:07:13;21.60;99.90
26803;DHT22;14378;51.796;5.808;2023-08-17T11:09:17;21.60;99.90
26803;DHT22;14378;51.796;5.808;2023-08-17T11:11:20;21.60;99.90
26803;DHT22;14378;51.796;5.808;2023-08-17T11:13:21;21.60;99.90
26803;DHT22;14378;51.796;5.808;2023-08-17T11:15:24;21.70;99.90
26803;DHT22;14378;51.796;5.808;2023-08-17T11:17:26;21.70;99.90
26803;DHT22;14378;51.796;5.808;2023-08-17T11:19:26;21.80;99.90
26803;DHT22;14378;51.796;5.808;2023-08-17T11:21:27;21.90;99.90
26803;DHT22;14378;51.796;5.808;2023-08-17T11:23:29;21.90;99.90
26803;DHT22;14378;51.796;5.808;2023-08-17T11:25:31;21.90;99.90
26803;DHT22;14378;51.796;5.808;2023-08-17T11:27:33;21.90;99.90
26803;DHT22;14378;51.796;5.808;2023-08-17T11:29:34;21.90;99.90
26803;DHT22;14378;51.796;5.808;2023-08-17T11:31:35;22.00;99.90
26803;DHT22;14378;51.796;5.808;2023-08-17T11:33:37;22.00;99.90
26803;DHT22;14378;51.796;5.808;2023-08-17T11:35:38;22.10;99.90
26803;DHT22;14378;51.796;5.808;2023-08-17T11:37:40;22.10;99.90
26803;DHT22;14378;51.796;5.808;2023-08-17T11:39:40;22.10;99.90
26803;DHT22;14378;51.796;5.808;2023-08-17T11:41:41;22.20;99.90
26803;DHT22;14378;51.796;5.808;2023-08-17T11:43:43;22.20;99.90
26803;DHT22;14378;51.796;5.808;2023-08-17T11:45:44;22.30;99.90
26803;DHT22;14378;51.796;5.808;2023-08-17T11:47:46;22.30;99.90
26803;DHT22;14378;51.796;5.808;2023-08-17T11:49:48;22.40;99.90
26803;DHT22;14378;51.796;5.808;2023-08-17T11:51:51;22.40;99.90
26803;DHT22;14378;51.796;5.808;2023-08-17T11:53:52;22.40;99.90
26803;DHT22;14378;51.796;5.808;2023-08-17T11:55:53;22.30;99.90
26803;DHT22;14378;51.796;5.808;2023-08-17T11:57:54;22.30;99.90
26803;DHT22;14378;51.796;5.808;2023-08-17T11:59:56;22.30;99.90
26803;DHT22;14378;51.796;5.808;2023-08-17T12:01:57;22.30;99.90
26803;DHT22;14378;51.796;5.808;2023-08-17T12:03:58;22.40;99.90
26803;DHT22;14378;51.796;5.808;2023-08-17T12:05:59;22.40;99.90
26803;DHT22;14378;51.796;5.808;2023-08-17T12:08:00;22.50;99.90
26803;DHT22;14378;51.796;5.808;2023-08-17T12:10:05;22.50;99.90
26803;DHT22;14378;51.796;5.808;2023-08-17T12:12:06;22.40;99.90
26803;DHT22;14378;51.796;5.808;2023-08-17T12:14:11;22.40;99.90
26803;DHT22;14378;51.796;5.808;2023-08-17T12:16:16;22.40;99.90
26803;DHT22;14378;51.796;5.808;2023-08-17T12:18:17;22.40;99.90
26803;DHT22;14378;51.796;5.808;2023-08-17T12:20:19;22.50;99.90
26803;DHT22;14378;51.796;5.808;2023-08-17T12:22:23;22.50;99.90
26803;DHT22;14378;51.796;5.808;2023-08-17T12:24:24;22.50;99.90
26803;DHT22;14378;51.796;5.808;2023-08-17T12:26:25;22.60;99.90
26803;DHT22;14378;51.796;5.808;2023-08-17T12:28:28;22.50;99.90
26803;DHT22;14378;51.796;5.808;2023-08-17T12:30:31;22.60;99.90
26803;DHT22;14378;51.796;5.808;2023-08-17T12:32:32;22.70;99.90
26803;DHT22;14378;51.796;5.808;2023-08-17T12:34:33;22.70;99.90
26803;DHT22;14378;51.796;5.808;2023-08-17T12:36:34;22.80;99.90
26803;DHT22;14378;51.796;5.808;2023-08-17T12:38:38;22.80;99.90
26803;DHT22;14378;51.796;5.808;2023-08-17T12:40:45;22.80;99.90
26803;DHT22;14378;51.796;5.808;2023-08-17T12:42:46;22.80;99.90
26803;DHT22;14378;51.796;5.808;2023-08-17T12:44:46;22.90;99.90
26803;DHT22;14378;51.796;5.808;2023-08-17T12:46:47;22.90;99.90
26803;DHT22;14378;51.796;5.808;2023-08-17T12:48:48;22.80;99.90
26803;DHT22;14378;51.796;5.808;2023-08-17T12:50:49;22.90;99.90
26803;DHT22;14378;51.796;5.808;2023-08-17T12:52:50;22.90;99.90